Latest Weather Observations for Ngukurr AWS

IDD60801

Issued at 12:31 pm CST Sunday 29 March 2015 (issued every 30 minutes, with the page automatically refreshed every 10 minutes)

About weather observations | Map of weather stations | Latest weather observations for NT | Other Formats
Station Details ID: 014299 Name: NGUKURR AIRPORT Lat: -14.72 Lon: 134.75 Height: 14.46 m
Data from the previous 72 hours. | See also: Recent months at Ngukurr AWS
Date/Time
CST
Temp
°C
App
Temp
°C
Dew
Point
Rel
Hum
%
Delta-T
°C
Wind Press
QNH
hPa
Press
MSL
hPa
Rain
since 9 am
mm
Dir
 
Spd
km/h
Gust
km/h
Spd
kts
Gust
kts
29/12:30pm 34.7 34.4 19.5 40 10.1 ENE 20 30 11 16 1012.7 1012.6 0.0
29/12:00pm 34.4 34.5 19.2 40 10.0 ENE 17 22 9 12 1013.2 1013.1 0.0
29/11:30am 33.8 34.2 19.1 42 9.7 ENE 15 24 8 13 1013.7 1013.6 0.0
29/11:00am 33.6 33.2 18.1 39 10.0 ENE 17 24 9 13 1014.1 1014.0 0.0
29/10:30am 32.1 34.8 21.3 53 7.3 ENE 9 15 5 8 1014.5 1014.4 0.0
29/10:00am 31.8 36.8 23.9 63 5.5 SSE 4 7 2 4 1014.5 1014.4 0.0
29/09:30am 30.1 35.3 23.5 67 4.6 E 2 6 1 3 1014.5 1014.4 0.0
29/09:00am 29.6 34.4 23.5 69 4.2 ESE 4 6 2 3 1014.4 1014.3 0.0
29/08:30am 28.0 33.2 24.2 80 2.6 SSE 4 6 2 3 1014.2 1014.1 0.0
29/08:00am 26.6 32.7 25.7 95 0.6 S 4 6 2 3 1014.1 1014.0 0.0
29/07:30am 25.3 31.1 25.1 99 0.1 SSW 4 6 2 3 1013.6 1013.5 0.0
29/07:00am 24.3 29.1 24.1 99 0.1 SW 6 6 3 3 1013.3 1013.2 0.0
29/06:30am 23.8 29.4 23.6 99 0.1 CALM 0 0 0 0 1012.9 1012.8 0.0
29/06:00am 23.9 29.6 23.7 99 0.1 CALM 0 2 0 1 1012.4 1012.3 0.0
29/05:30am 24.1 29.1 23.9 99 0.1 SW 4 6 2 3 1012.2 1012.1 0.0
29/05:00am 24.0 29.7 23.7 98 0.2 CALM 0 0 0 0 1011.7 1011.6 0.0
29/04:30am 24.6 30.6 24.3 98 0.2 CALM 0 2 0 1 1011.6 1011.5 0.0
29/04:00am 25.1 30.4 24.4 96 0.5 NNE 4 6 2 3 1011.3 1011.2 0.0
29/03:30am 25.1 30.7 24.8 98 0.2 N 4 4 2 2 1011.4 1011.3 0.0
29/03:00am 25.3 31.0 25.0 98 0.2 N 4 4 2 2 1011.6 1011.5 0.0
29/02:30am 25.6 31.5 25.3 98 0.2 N 4 6 2 3 1012.0 1011.9 0.0
29/02:00am 25.8 31.4 25.5 98 0.2 NNE 6 7 3 4 1012.4 1012.3 0.0
29/01:30am 25.8 31.8 25.5 98 0.2 N 4 6 2 3 1012.7 1012.6 0.0
29/01:00am 26.0 32.0 25.5 97 0.4 NNE 4 6 2 3 1013.0 1012.9 0.0
29/12:30am 26.1 32.0 25.4 96 0.5 N 4 4 2 2 1013.4 1013.3 0.0
29/12:00am 26.3 32.6 25.3 94 0.7 ENE 2 4 1 2 1013.6 1013.5 0.0
 
Date/Time
CST
Temp
°C
App
Temp
°C
Dew
Point
Rel
Hum
%
Delta-T
°C
Wind Press
QNH
hPa
Press
MSL
hPa
Rain
since 9 am
mm
Dir
 
Spd
km/h
Gust
km/h
Spd
kts
Gust
kts
28/11:30pm 26.1 32.6 25.1 94 0.7 CALM 0 0 0 0 1013.7 1013.6 0.0
28/11:00pm 26.4 33.1 25.4 94 0.7 CALM 0 0 0 0 1013.8 1013.7 0.0
28/10:30pm 26.8 33.0 24.6 88 1.5 CALM 0 0 0 0 1013.7 1013.6 0.0
28/10:00pm 27.3 32.9 24.2 83 2.1 ESE 2 2 1 1 1013.5 1013.4 0.0
28/09:30pm 28.0 32.5 23.6 77 3.0 ENE 6 7 3 4 1013.5 1013.4 0.0
28/09:00pm 28.5 33.0 23.6 75 3.4 E 6 9 3 5 1013.4 1013.3 0.0
28/08:30pm 28.8 33.0 23.2 71 3.8 E 6 9 3 5 1013.1 1013.0 0.0
28/08:00pm 29.3 33.0 23.3 70 4.1 E 9 15 5 8 1012.7 1012.6 0.0
28/07:30pm 29.8 33.5 23.3 68 4.5 E 9 17 5 9 1012.4 1012.3 0.0
28/07:00pm 30.4 33.9 22.8 64 5.2 E 9 15 5 8 1011.8 1011.7 0.0
28/06:30pm 31.3 34.1 22.3 58 6.1 E 11 17 6 9 1011.4 1011.3 0.0
28/06:00pm 32.5 35.0 21.7 53 7.3 ESE 11 15 6 8 1011.3 1011.2 0.0
28/05:30pm 33.4 34.2 19.8 44 9.0 E 15 20 8 11 1010.9 1010.8 0.0
28/05:00pm 34.1 34.8 19.7 42 9.5 E 15 24 8 13 1010.6 1010.5 0.0
28/04:30pm 34.5 34.7 19.3 40 10.0 ENE 17 24 9 13 1010.5 1010.4 0.0
28/04:00pm 35.1 36.8 20.2 41 10.0 E 11 19 6 10 1010.5 1010.4 0.0
28/03:30pm 34.6 35.2 19.4 40 10.1 E 15 20 8 11 1010.5 1010.4 0.0
28/03:00pm 35.0 35.0 18.1 36 11.0 ENE 15 22 8 12 1010.7 1010.6 0.0
28/02:30pm 35.2 35.8 18.7 37 10.8 E 13 22 7 12 1011.1 1011.0 0.0
28/02:00pm 34.7 36.1 19.5 40 10.1 E 11 20 6 11 1011.5 1011.4 0.0
28/01:30pm 34.1 36.7 20.5 45 9.1 ENE 7 17 4 9 1011.9 1011.8 0.0
28/01:00pm 34.3 36.3 20.7 45 9.1 ENE 11 20 6 11 1012.2 1012.1 0.0
28/12:30pm 33.9 35.3 20.3 45 9.1 ENE 13 20 7 11 1012.7 1012.6 0.0
28/12:00pm 33.2 35.9 21.4 50 8.0 E 9 15 5 8 1013.1 1013.0 0.0
28/11:30am 32.4 34.6 21.9 54 7.1 ENE 13 20 7 11 1013.4 1013.3 0.0
28/11:00am 32.2 35.6 23.4 59 6.1 ENE 11 17 6 9 1013.9 1013.8 0.0
28/10:30am 31.5 35.9 24.4 66 5.0 NE 9 17 5 9 1014.0 1013.9 0.0
28/10:00am 29.9 33.8 23.6 69 4.3 NE 9 15 5 8 1014.1 1014.0 0.0
28/09:30am 29.4 33.9 23.6 71 4.0 ENE 6 9 3 5 1014.2 1014.1 0.0
28/09:00am 27.9 32.6 22.6 73 3.6 E 2 6 1 3 1014.4 1014.3 0.0
28/08:30am 26.6 32.0 23.9 85 1.9 ENE 2 4 1 2 1014.1 1014.0 0.0
28/08:00am 24.8 30.0 23.6 93 0.8 NNE 2 4 1 2 1013.8 1013.7 0.0
28/07:30am 23.4 28.8 23.2 99 0.1 CALM 0 2 0 1 1013.4 1013.3 0.0
28/07:00am 22.1 26.8 21.9 99 0.1 CALM 0 0 0 0 1013.1 1013.0 0.0
28/06:30am 21.8 26.3 21.6 99 0.1 CALM 0 0 0 0 1012.9 1012.8 0.0
28/06:00am 21.8 26.3 21.6 99 0.1 CALM 0 0 0 0 1012.5 1012.4 0.0
28/05:30am 21.7 25.8 21.5 99 0.1 S 2 4 1 2 1012.4 1012.3 0.0
28/05:00am 21.6 26.0 21.4 99 0.1 CALM 0 0 0 0 1012.1 1012.0 0.0
28/04:30am 21.7 26.2 21.5 99 0.1 CALM 0 0 0 0 1011.6 1011.5 0.0
28/04:00am 21.8 26.3 21.5 98 0.2 CALM 0 0 0 0 1011.5 1011.4 0.0
28/03:30am 22.0 26.6 21.7 98 0.2 CALM 0 0 0 0 1011.6 1011.5 0.0
28/03:00am 22.0 26.6 21.7 98 0.2 CALM 0 0 0 0 1011.8 1011.7 0.0
28/02:30am 22.3 27.0 22.0 98 0.2 CALM 0 0 0 0 1012.1 1012.0 0.0
28/02:00am 22.6 27.5 22.3 98 0.2 CALM 0 0 0 0 1012.4 1012.3 0.0
28/01:30am 22.6 27.5 22.3 98 0.2 CALM 0 0 0 0 1012.6 1012.5 0.0
28/01:00am 22.7 27.6 22.4 98 0.2 CALM 0 0 0 0 1012.9 1012.8 0.0
28/12:30am 23.0 28.1 22.7 98 0.2 CALM 0 2 0 1 1013.2 1013.1 0.0
28/12:00am 23.4 28.0 23.1 98 0.2 NW 4 6 2 3 1013.3 1013.2 0.0
 
Date/Time
CST
Temp
°C
App
Temp
°C
Dew
Point
Rel
Hum
%
Delta-T
°C
Wind Press
QNH
hPa
Press
MSL
hPa
Rain
since 9 am
mm
Dir
 
Spd
km/h
Gust
km/h
Spd
kts
Gust
kts
27/11:30pm 23.2 28.4 22.9 98 0.2 CALM 0 0 0 0 1013.6 1013.5 0.0
27/11:00pm 23.5 28.9 23.2 98 0.2 CALM 0 0 0 0 1013.7 1013.6 0.0
27/10:30pm 23.9 29.4 23.4 97 0.3 CALM 0 0 0 0 1013.9 1013.8 0.0
27/10:00pm 24.1 29.4 23.1 94 0.7 CALM 0 0 0 0 1013.8 1013.7 0.0
27/09:30pm 24.5 29.4 22.4 88 1.4 CALM 0 0 0 0 1013.9 1013.8 0.0
27/09:00pm 24.9 30.0 22.6 87 1.5 CALM 0 0 0 0 1013.8 1013.7 0.0
27/08:30pm 25.5 31.0 23.4 88 1.4 CALM 0 0 0 0 1013.8 1013.7 0.0
27/08:00pm 25.7 31.0 23.0 85 1.8 CALM 0 0 0 0 1013.6 1013.5 0.0
27/07:30pm 26.6 29.9 19.2 64 4.8 CALM 0 0 0 0 1013.2 1013.1 0.0
27/07:00pm 28.8 31.0 18.3 53 6.7 ENE 4 6 2 3 1013.0 1012.9 0.0
27/06:30pm 29.9 30.6 17.0 45 8.1 E 9 13 5 7 1012.6 1012.5 0.0
27/06:00pm 30.9 31.2 16.1 41 9.2 ENE 9 13 5 7 1012.1 1012.0 0.0
27/05:30pm 32.4 31.4 14.5 33 11.0 E 13 20 7 11 1011.8 1011.7 0.0
27/05:00pm 34.0 32.1 12.9 28 12.7 E 15 20 8 11 1011.5 1011.4 0.0
27/04:30pm 34.5 32.3 13.3 27 12.9 ESE 17 22 9 12 1011.5 1011.4 0.0
27/04:00pm 34.5 33.8 16.4 34 11.5 E 15 26 8 14 1011.5 1011.4 0.0
27/03:30pm 34.9 35.1 17.6 35 11.2 ESE 13 20 7 11 1011.5 1011.4 0.0
27/03:00pm 34.1 34.9 17.3 36 10.8 ESE 9 13 5 7 1011.6 1011.5 0.0
27/02:30pm 34.8 36.1 18.4 38 10.7 SE 9 15 5 8 1011.8 1011.7 0.0
27/02:00pm 34.9 36.4 18.9 39 10.5 SE 9 15 5 8 1012.1 1012.0 0.0
27/01:30pm 33.1 34.9 19.6 45 8.9 SSE 9 19 5 10 1012.7 1012.6 0.0
27/01:00pm 34.0 36.2 21.1 47 8.7 SE 11 19 6 10 1013.2 1013.1 0.0
27/12:30pm 33.6 36.3 22.1 51 7.9 SSE 11 24 6 13 1013.8 1013.7 0.0
27/12:00pm 32.3 35.6 21.8 54 7.1 S 7 13 4 7 1014.4 1014.3 0.0
27/11:30am 32.3 35.9 23.0 58 6.4 S 9 13 5 7 1015.0 1014.9 0.0
27/11:00am 32.3 36.5 23.5 59 6.1 SW 7 15 4 8 1015.4 1015.3 0.0
27/10:30am 30.9 35.9 23.8 66 4.9 SSE 4 9 2 5 1015.8 1015.7 0.0
27/10:00am 30.2 34.9 23.9 69 4.4 S 6 9 3 5 1015.9 1015.8 0.0
27/09:30am 29.0 33.6 24.1 75 3.4 S 7 13 4 7 1015.9 1015.8 0.0
27/09:00am 28.4 33.2 24.4 79 2.8 SSW 7 11 4 6 1015.9 1015.8 4.0
27/08:30am 26.6 33.4 25.6 94 0.7 CALM 0 4 0 2 1015.6 1015.5 4.0
27/08:00am 25.4 31.5 25.1 98 0.2 SSE 2 4 1 2 1015.2 1015.1 4.0
27/07:30am 24.9 31.1 24.6 98 0.2 CALM 0 0 0 0 1014.9 1014.8 4.0
27/07:00am 24.2 30.0 24.0 99 0.1 CALM 0 4 0 2 1014.5 1014.4 4.0
27/06:30am 23.9 29.2 23.7 99 0.1 SSE 2 6 1 3 1014.6 1014.5 4.0
27/06:00am 23.9 28.8 23.7 99 0.1 SSE 4 7 2 4 1014.1 1014.0 4.0
27/05:30am 24.0 28.4 23.8 99 0.1 S 7 13 4 7 1014.2 1014.1 4.0
27/05:00am 23.6 29.1 23.4 99 0.1 CALM 0 4 0 2 1013.9 1013.8 4.0
27/04:30am 23.8 29.4 23.6 99 0.1 CALM 0 0 0 0 1013.7 1013.6 4.0
27/04:00am 24.0 29.7 23.8 99 0.1 CALM 0 0 0 0 1013.7 1013.6 4.0
27/03:30am 24.3 30.1 24.0 98 0.2 CALM 0 0 0 0 1013.8 1013.7 4.0
27/03:00am 24.5 29.7 24.2 98 0.2 W 4 6 2 3 1014.1 1014.0 4.0
27/02:30am 24.7 30.1 24.5 99 0.1 WSW 4 4 2 2 1014.5 1014.4 4.0
27/02:00am 24.9 30.7 24.6 98 0.2 WNW 2 4 1 2 1015.0 1014.9 4.0
27/01:30am 25.1 31.4 24.8 98 0.2 CALM 0 0 0 0 1015.4 1015.3 4.0
27/01:00am 25.3 31.8 25.0 98 0.2 CALM 0 0 0 0 1015.6 1015.5 4.0
27/12:30am 25.4 30.8 25.1 98 0.2 WNW 6 9 3 5 1015.7 1015.6 4.0
27/12:00am 25.3 31.8 25.0 98 0.2 CALM 0 0 0 0 1016.1 1016.0 4.0
 
Date/Time
CST
Temp
°C
App
Temp
°C
Dew
Point
Rel
Hum
%
Delta-T
°C
Wind Press
QNH
hPa
Press
MSL
hPa
Rain
since 9 am
mm
Dir
 
Spd
km/h
Gust
km/h
Spd
kts
Gust
kts
26/11:30pm 25.3 31.0 25.0 98 0.2 NW 4 6 2 3 1016.2 1016.1 4.0
26/11:00pm 25.4 31.2 25.1 98 0.2 WNW 4 6 2 3 1016.3 1016.2 4.0
26/10:30pm 25.4 31.5 25.1 98 0.2 SW 2 4 1 2 1016.4 1016.3 4.0
26/10:00pm 25.5 32.1 25.2 98 0.2 CALM 0 0 0 0 1016.4 1016.3 4.0
26/09:30pm 25.5 32.0 25.0 97 0.3 CALM 0 0 0 0 1016.2 1016.1 4.0
26/09:00pm 25.6 31.9 25.3 98 0.2 WNW 2 4 1 2 1015.9 1015.8 4.0
26/08:30pm 25.6 30.5 24.4 93 0.8 NNW 6 7 3 4 1015.6 1015.5 4.0
26/08:00pm 25.6 30.4 24.2 92 1.0 NNE 6 7 3 4 1015.2 1015.1 4.0
26/07:30pm 25.7 30.4 23.9 90 1.2 N 6 9 3 5 1014.9 1014.8 4.0
26/07:00pm 25.6 29.8 23.5 88 1.4 N 7 9 4 5 1014.5 1014.4 4.0
26/06:30pm 25.9 29.1 22.4 81 2.4 N 9 11 5 6 1013.9 1013.8 4.0
26/06:00pm 27.4 29.7 21.4 70 4.0 NE 11 20 6 11 1013.2 1013.1 4.0
26/05:30pm 27.4 29.1 21.0 68 4.2 NNE 13 22 7 12 1013.2 1013.1 4.0
26/05:00pm 27.6 28.5 21.6 70 4.0 NE 19 33 10 18 1013.4 1013.3 4.0
26/04:30pm 30.6 32.6 22.2 61 5.7 ENE 15 22 8 12 1012.4 1012.3 4.0
26/04:00pm 31.3 33.0 22.3 58 6.1 E 17 26 9 14 1011.9 1011.8 4.0
26/03:30pm 31.5 35.2 23.9 64 5.3 E 11 17 6 9 1011.7 1011.6 4.0
26/03:00pm 30.1 35.1 25.4 76 3.3 ESE 9 17 5 9 1011.5 1011.4 4.0
26/02:30pm 28.2 34.2 26.0 88 1.6 SE 6 9 3 5 1012.3 1012.2 4.0
26/02:00pm 27.3 33.4 27.1 99 0.1 SSE 9 15 5 8 1012.8 1012.7 4.0
26/01:30pm 25.6 30.9 25.3 98 0.2 SE 7 11 4 6 1013.6 1013.5 3.4
26/01:00pm 26.8 31.0 26.5 98 0.2 ESE 17 26 9 14 1014.0 1013.9 1.6

Other Formats:

Comma delimited format used in spreadsheet applications
http://www.bom.gov.au/fwo/IDD60801/IDD60801.94106.axf

JavaScript Object Notation format (JSON) in row-major order
http://www.bom.gov.au/fwo/IDD60801/IDD60801.94106.json